createdAt,value
2022-11-27T00:02:09.140Z,93.70
2022-11-27T00:05:12.099Z,93.80
2022-11-27T00:08:15.005Z,93.70
2022-11-27T00:11:19.608Z,93.50
2022-11-27T00:14:23.848Z,93.60
2022-11-27T00:17:26.783Z,93.50
2022-11-27T00:20:29.995Z,93.50
2022-11-27T00:23:34.186Z,93.40
2022-11-27T00:26:38.266Z,93.50
2022-11-27T00:29:42.738Z,94.00
2022-11-27T00:32:45.892Z,93.70
2022-11-27T00:35:48.865Z,93.60
2022-11-27T00:38:51.794Z,93.80
2022-11-27T00:41:54.719Z,93.80
2022-11-27T00:44:59.081Z,93.70
2022-11-27T00:48:02.020Z,93.60
2022-11-27T00:51:07.335Z,93.40
2022-11-27T00:54:10.659Z,93.30
2022-11-27T00:57:13.649Z,93.10
2022-11-27T01:00:19.972Z,93.00
2022-11-27T01:03:22.858Z,93.00
2022-11-27T01:06:27.116Z,92.90
2022-11-27T01:09:30.021Z,92.90
2022-11-27T01:12:32.939Z,92.90
2022-11-27T01:15:37.213Z,93.20
2022-11-27T01:18:41.917Z,93.20
2022-11-27T01:21:44.819Z,92.90
2022-11-27T01:24:47.799Z,93.00
2022-11-27T01:27:50.671Z,92.80
2022-11-27T01:30:55.089Z,92.80
2022-11-27T01:34:00.055Z,92.80
2022-11-27T01:37:02.958Z,92.80
2022-11-27T01:40:07.228Z,92.90
2022-11-27T01:43:15.044Z,92.90
2022-11-27T01:46:38.664Z,92.80
2022-11-27T01:49:47.023Z,92.80
2022-11-27T01:52:53.205Z,92.80
2022-11-27T01:56:00.304Z,92.80
2022-11-27T01:59:04.909Z,92.90
2022-11-27T02:02:09.302Z,92.90
2022-11-27T02:05:16.293Z,92.90
2022-11-27T02:08:19.981Z,92.90
2022-11-27T02:11:29.292Z,93.00
2022-11-27T02:14:41.884Z,92.90
2022-11-27T02:17:52.873Z,92.90
2022-11-27T02:21:05.072Z,93.00
2022-11-27T02:24:49.477Z,93.00
2022-11-27T02:28:25.898Z,93.10
2022-11-27T02:31:38.594Z,93.20
2022-11-27T02:34:49.692Z,93.40
2022-11-27T02:37:58.425Z,93.70
2022-11-27T02:41:06.645Z,93.70
2022-11-27T02:44:10.711Z,93.50
2022-11-27T02:47:15.895Z,93.70
2022-11-27T02:50:22.827Z,93.70
2022-11-27T02:53:31.971Z,93.40
2022-11-27T02:56:36.099Z,93.40
2022-11-27T02:59:40.209Z,93.20
2022-11-27T03:02:49.000Z,92.90
2022-11-27T03:05:55.624Z,93.40
2022-11-27T03:09:02.595Z,93.10
2022-11-27T03:12:08.187Z,93.00
2022-11-27T03:15:12.263Z,93.10
2022-11-27T03:18:22.235Z,93.30
2022-11-27T03:21:30.536Z,93.20
2022-11-27T03:24:36.460Z,93.10
2022-11-27T03:27:45.420Z,92.80
2022-11-27T03:30:48.676Z,92.90
2022-11-27T03:33:54.596Z,92.90
2022-11-27T03:36:57.533Z,92.70
2022-11-27T03:40:00.556Z,92.60
2022-11-27T03:43:10.491Z,92.70
2022-11-27T03:46:23.666Z,92.80
2022-11-27T03:49:36.901Z,92.90
2022-11-27T03:52:47.528Z,92.70
2022-11-27T03:55:56.108Z,92.70
2022-11-27T03:59:04.492Z,92.60
2022-11-27T04:02:07.386Z,92.60
2022-11-27T04:05:12.491Z,92.60
2022-11-27T04:08:15.375Z,92.50
2022-11-27T04:11:18.300Z,92.50
2022-11-27T04:14:21.182Z,92.30
2022-11-27T04:17:24.119Z,92.30
2022-11-27T04:20:29.057Z,92.20
2022-11-27T04:23:31.939Z,92.30
2022-11-27T04:26:34.844Z,92.50
2022-11-27T04:29:37.724Z,92.70
2022-11-27T04:32:40.675Z,92.70
2022-11-27T04:35:45.155Z,92.70
2022-11-27T04:38:48.253Z,92.60
2022-11-27T04:41:51.295Z,92.70
2022-11-27T04:44:54.151Z,92.70
2022-11-27T04:47:57.038Z,92.70
2022-11-27T04:51:01.280Z,92.50
2022-11-27T04:54:04.568Z,92.50
2022-11-27T04:57:07.760Z,92.40
2022-11-27T05:00:11.851Z,92.30
2022-11-27T05:03:14.928Z,92.20
2022-11-27T05:06:19.549Z,92.20
2022-11-27T05:09:22.432Z,92.40
2022-11-27T05:12:25.349Z,92.40
2022-11-27T05:15:28.239Z,92.20
2022-11-27T05:18:31.129Z,92.20
2022-11-27T05:21:35.647Z,92.20
2022-11-27T05:24:39.040Z,91.90
2022-11-27T05:27:42.133Z,91.80
2022-11-27T05:30:45.125Z,91.90
2022-11-27T05:33:47.983Z,91.80
2022-11-27T05:36:52.253Z,91.90
2022-11-27T05:39:55.108Z,92.20
2022-11-27T05:42:58.017Z,92.20
2022-11-27T05:46:00.957Z,92.10
2022-11-27T05:49:03.831Z,92.00
2022-11-27T05:52:08.057Z,92.10
2022-11-27T05:55:11.163Z,92.20
2022-11-27T05:58:14.039Z,92.10
2022-11-27T06:01:19.333Z,92.00
2022-11-27T06:04:22.256Z,91.90
2022-11-27T06:07:26.526Z,92.00
2022-11-27T06:10:29.424Z,92.00
2022-11-27T06:13:32.287Z,91.60
2022-11-27T06:16:35.220Z,91.90
2022-11-27T06:19:38.452Z,91.90
2022-11-27T06:22:42.694Z,91.80
2022-11-27T06:25:45.564Z,91.80
2022-11-27T06:28:50.053Z,91.80
2022-11-27T06:31:53.039Z,91.90
2022-11-27T06:34:55.982Z,92.00
2022-11-27T06:38:00.241Z,92.10
2022-11-27T06:41:04.416Z,92.00
2022-11-27T06:44:07.369Z,92.00
2022-11-27T06:47:10.272Z,92.00
2022-11-27T06:50:13.309Z,92.00
2022-11-27T06:53:17.596Z,91.90
2022-11-27T06:56:23.044Z,92.10
2022-11-27T06:59:25.998Z,92.10
2022-11-27T07:02:30.185Z,92.00
2022-11-27T07:05:33.158Z,92.20
2022-11-27T07:08:37.895Z,92.20
2022-11-27T07:11:41.304Z,92.50
2022-11-27T07:14:44.216Z,92.60
2022-11-27T07:17:47.143Z,92.60
2022-11-27T07:20:56.393Z,92.70
2022-11-27T07:24:01.823Z,92.70
2022-11-27T07:27:04.814Z,92.70
2022-11-27T07:30:09.003Z,92.90
2022-11-27T07:33:12.000Z,93.10
2022-11-27T07:36:17.091Z,93.30
2022-11-27T07:39:39.389Z,93.20
2022-11-27T07:42:44.381Z,93.40
2022-11-27T07:45:47.364Z,93.80
2022-11-27T07:48:50.615Z,93.80
2022-11-27T07:51:53.500Z,94.00
2022-11-27T07:54:57.747Z,94.20
2022-11-27T07:58:00.693Z,94.10
2022-11-27T08:01:07.735Z,94.30
2022-11-27T08:04:10.708Z,94.50
2022-11-27T08:07:13.957Z,94.50
2022-11-27T08:10:18.348Z,94.60
2022-11-27T08:13:21.296Z,94.80
2022-11-27T08:16:24.374Z,95.00
2022-11-27T08:19:27.351Z,95.00
2022-11-27T08:22:30.219Z,95.00
2022-11-27T08:25:34.515Z,95.20
2022-11-27T08:28:38.030Z,95.40
2022-11-27T08:31:40.947Z,95.60
2022-11-27T08:34:43.922Z,95.40
2022-11-27T08:37:46.766Z,95.70
2022-11-27T08:40:57.319Z,95.70
2022-11-27T08:44:00.466Z,95.80
2022-11-27T08:47:03.330Z,96.20
2022-11-27T08:50:07.394Z,96.20
2022-11-27T08:53:10.295Z,96.50
2022-11-27T08:56:17.601Z,97.20
2022-11-27T08:59:21.174Z,97.30
2022-11-27T09:02:24.073Z,97.10
2022-11-27T09:05:27.337Z,96.90
2022-11-27T09:08:30.240Z,97.20
2022-11-27T09:11:36.622Z,97.50
2022-11-27T09:14:40.147Z,97.60
2022-11-27T09:17:43.578Z,97.70
2022-11-27T09:20:46.551Z,97.60
2022-11-27T09:23:53.192Z,97.50
2022-11-27T09:26:57.644Z,97.30
2022-11-27T09:30:00.814Z,99.90
2022-11-27T09:33:05.404Z,99.90
2022-11-27T09:36:10.370Z,99.90
2022-11-27T09:39:15.529Z,99.90
2022-11-27T09:42:35.079Z,99.90
2022-11-27T09:45:45.073Z,99.90
2022-11-27T09:48:51.616Z,97.90
2022-11-27T09:51:57.456Z,96.20
2022-11-27T09:55:10.819Z,97.60
2022-11-27T09:58:19.578Z,97.50
2022-11-27T10:01:30.970Z,97.00
2022-11-27T10:04:57.813Z,95.60
2022-11-27T10:08:21.028Z,95.60
2022-11-27T10:11:30.528Z,95.60
2022-11-27T10:14:46.344Z,94.80
2022-11-27T10:17:55.107Z,95.50
2022-11-27T10:21:01.944Z,94.30
2022-11-27T10:24:17.131Z,93.30
2022-11-27T10:27:24.807Z,92.40
2022-11-27T10:30:31.905Z,92.90
2022-11-27T10:33:42.100Z,92.30
2022-11-27T10:36:49.944Z,93.10
2022-11-27T10:39:56.291Z,92.50
2022-11-27T10:43:05.629Z,93.60
2022-11-27T10:46:16.090Z,92.80
2022-11-27T10:49:19.623Z,92.70
2022-11-27T10:52:27.828Z,92.30
2022-11-27T10:55:48.260Z,92.50
2022-11-27T10:58:56.320Z,92.30
2022-11-27T11:02:01.726Z,92.80
2022-11-27T11:05:37.278Z,92.80
2022-11-27T11:08:37.591Z,93.40
2022-11-27T11:11:40.556Z,93.00
2022-11-27T11:14:51.890Z,93.00
2022-11-27T11:17:56.256Z,92.20
2022-11-27T11:21:01.506Z,92.80
2022-11-27T11:24:07.307Z,93.30
2022-11-27T11:27:16.214Z,92.80
2022-11-27T11:30:24.312Z,93.40
2022-11-27T11:33:29.564Z,93.20
2022-11-27T11:36:33.000Z,93.00
2022-11-27T11:39:45.217Z,93.20
2022-11-27T11:42:54.487Z,93.00
2022-11-27T11:46:09.483Z,92.80
2022-11-27T11:49:23.664Z,92.90
2022-11-27T11:52:41.347Z,93.10
2022-11-27T11:55:54.550Z,93.40
2022-11-27T11:58:59.544Z,93.30
2022-11-27T12:02:31.764Z,93.40
2022-11-27T12:05:43.348Z,93.30
2022-11-27T12:08:56.023Z,93.10
2022-11-27T12:12:04.739Z,93.10
2022-11-27T12:15:19.174Z,93.20
2022-11-27T12:18:30.394Z,93.40
2022-11-27T12:21:45.109Z,93.50
2022-11-27T12:24:57.215Z,93.80
2022-11-27T12:28:12.859Z,93.80
2022-11-27T12:31:29.384Z,93.50
2022-11-27T12:34:45.080Z,93.90
2022-11-27T12:38:01.942Z,93.90
2022-11-27T12:41:24.466Z,94.00
2022-11-27T12:44:34.094Z,94.10
2022-11-27T12:47:43.233Z,94.50
2022-11-27T12:50:51.331Z,94.40
2022-11-27T12:54:00.519Z,94.20
2022-11-27T12:57:09.198Z,94.40
2022-11-27T13:00:17.881Z,94.20
2022-11-27T13:03:29.586Z,94.20
2022-11-27T13:06:37.167Z,94.30
2022-11-27T13:09:48.063Z,94.10
2022-11-27T13:12:57.058Z,93.90
2022-11-27T13:16:05.336Z,94.20
2022-11-27T13:19:16.202Z,94.10
2022-11-27T13:22:29.436Z,94.60
2022-11-27T13:25:37.176Z,94.70
2022-11-27T13:28:44.450Z,94.50
2022-11-27T13:31:54.647Z,94.40
2022-11-27T13:35:00.757Z,94.60
2022-11-27T13:38:09.732Z,95.00
2022-11-27T13:41:23.322Z,95.00
2022-11-27T13:44:28.564Z,95.10
2022-11-27T13:47:38.854Z,96.80
2022-11-27T13:50:45.666Z,95.70
2022-11-27T13:53:48.763Z,95.70
2022-11-27T13:56:52.993Z,95.50
2022-11-27T13:59:58.214Z,95.40
2022-11-27T14:03:01.408Z,95.40
2022-11-27T14:06:15.950Z,95.50
2022-11-27T14:09:18.848Z,95.50
2022-11-27T14:12:26.623Z,95.80
2022-11-27T14:15:31.890Z,96.20
2022-11-27T14:18:35.731Z,95.70
2022-11-27T14:21:42.699Z,95.80
2022-11-27T14:24:47.060Z,95.60
2022-11-27T14:27:59.561Z,95.60
2022-11-27T14:31:03.602Z,95.50
2022-11-27T14:34:24.671Z,95.60
2022-11-27T14:37:29.282Z,95.60
2022-11-27T14:40:32.163Z,95.60
2022-11-27T14:43:36.493Z,95.80
2022-11-27T14:46:39.430Z,95.90
2022-11-27T14:49:42.547Z,95.90
2022-11-27T14:52:51.836Z,95.70
2022-11-27T14:55:57.872Z,95.80
2022-11-27T14:59:02.967Z,95.70
2022-11-27T15:02:18.483Z,95.90
2022-11-27T15:05:24.564Z,95.90
2022-11-27T15:08:28.888Z,95.70
2022-11-27T15:11:54.547Z,96.10
2022-11-27T15:15:00.669Z,96.30
2022-11-27T15:18:05.849Z,96.40
2022-11-27T15:21:12.670Z,96.30
2022-11-27T15:24:30.989Z,96.30
2022-11-27T15:27:44.951Z,96.20
2022-11-27T15:30:49.413Z,96.10
2022-11-27T15:34:06.669Z,96.40
2022-11-27T15:37:22.227Z,96.60
2022-11-27T15:40:35.941Z,96.60
2022-11-27T15:43:38.796Z,96.50
2022-11-27T15:46:43.445Z,96.80
2022-11-27T15:49:46.366Z,96.60
2022-11-27T15:52:49.366Z,96.70
2022-11-27T15:55:52.247Z,99.90
2022-11-27T15:58:55.121Z,98.00
2022-11-27T16:01:59.678Z,97.10
2022-11-27T16:05:03.740Z,96.90
2022-11-27T16:08:07.757Z,96.80
2022-11-27T16:11:13.548Z,96.80
2022-11-27T16:14:16.424Z,96.80
2022-11-27T16:17:20.679Z,96.70
2022-11-27T16:20:23.579Z,96.60
2022-11-27T16:23:26.455Z,96.20
2022-11-27T16:26:29.555Z,96.20
2022-11-27T16:29:32.883Z,95.90
2022-11-27T16:32:39.856Z,95.90
2022-11-27T16:35:42.732Z,96.00
2022-11-27T16:38:46.636Z,95.90
2022-11-27T16:41:49.563Z,95.90
2022-11-27T16:44:52.437Z,95.80
2022-11-27T16:47:56.856Z,95.70
2022-11-27T16:51:03.638Z,95.90
2022-11-27T16:54:08.937Z,95.80
2022-11-27T16:57:11.848Z,95.80
2022-11-27T17:00:15.745Z,95.90
2022-11-27T17:03:20.116Z,95.90
2022-11-27T17:06:25.739Z,95.90
2022-11-27T17:09:29.397Z,96.00
2022-11-27T17:12:33.832Z,96.00
2022-11-27T17:15:40.527Z,95.80
2022-11-27T17:18:46.079Z,95.60
2022-11-27T17:21:48.938Z,95.60
2022-11-27T17:24:51.853Z,95.60
2022-11-27T17:27:54.897Z,95.40
2022-11-27T17:30:57.764Z,95.40
2022-11-27T17:34:02.172Z,95.30
2022-11-27T17:37:05.112Z,95.40
2022-11-27T17:40:09.445Z,95.30
2022-11-27T17:43:12.391Z,95.20
2022-11-27T17:46:18.998Z,95.40
2022-11-27T17:49:23.272Z,95.30
2022-11-27T17:52:26.151Z,95.30
2022-11-27T17:55:29.266Z,95.80
2022-11-27T17:58:32.405Z,95.60
2022-11-27T18:01:35.375Z,95.50
2022-11-27T18:04:39.819Z,95.60
2022-11-27T18:07:42.754Z,95.70
2022-11-27T18:10:45.732Z,95.40
2022-11-27T18:13:49.843Z,95.50
2022-11-27T18:16:52.812Z,95.50
2022-11-27T18:19:58.967Z,95.50
2022-11-27T18:23:01.962Z,95.50
2022-11-27T18:26:07.920Z,95.50
2022-11-27T18:29:11.845Z,95.70
2022-11-27T18:32:16.915Z,95.50
2022-11-27T18:35:23.915Z,95.40
2022-11-27T18:38:26.954Z,95.50
2022-11-27T18:41:30.131Z,96.00
2022-11-27T18:44:34.689Z,95.40
2022-11-27T18:47:40.004Z,95.50
2022-11-27T18:50:44.763Z,95.60
2022-11-27T18:53:48.333Z,95.60
2022-11-27T18:56:51.511Z,95.70
2022-11-27T18:59:54.456Z,95.70
2022-11-27T19:02:57.405Z,95.80
2022-11-27T19:06:02.656Z,95.80
2022-11-27T19:09:05.870Z,95.90
2022-11-27T19:12:08.822Z,95.70
2022-11-27T19:15:12.456Z,96.00
2022-11-27T19:18:15.337Z,96.10
2022-11-27T19:21:21.190Z,96.10
2022-11-27T19:24:24.097Z,96.20
2022-11-27T19:27:27.020Z,96.30
2022-11-27T19:30:33.881Z,96.20
2022-11-27T19:33:38.049Z,96.20
2022-11-27T19:36:42.336Z,96.30
2022-11-27T19:39:46.021Z,96.10
2022-11-27T19:42:54.589Z,96.20
2022-11-27T19:46:00.969Z,96.20
2022-11-27T19:49:05.844Z,96.20
2022-11-27T19:52:10.494Z,96.20
2022-11-27T19:55:13.386Z,96.30
2022-11-27T19:58:16.262Z,96.60
2022-11-27T20:01:20.806Z,96.30
2022-11-27T20:04:23.789Z,96.20
2022-11-27T20:07:28.285Z,96.30
2022-11-27T20:10:31.249Z,96.30
2022-11-27T20:13:34.343Z,96.30
2022-11-27T20:16:38.290Z,96.30
2022-11-27T20:19:41.771Z,96.40
2022-11-27T20:22:46.483Z,96.40
2022-11-27T20:25:50.483Z,96.40
2022-11-27T20:28:54.150Z,96.60
2022-11-27T20:31:57.273Z,97.10
2022-11-27T20:35:00.315Z,96.90
2022-11-27T20:38:04.626Z,96.40
2022-11-27T20:41:08.438Z,96.40
2022-11-27T20:44:12.242Z,96.40
2022-11-27T20:47:15.116Z,96.30
2022-11-27T20:50:18.188Z,96.40
2022-11-27T20:53:22.429Z,96.20
2022-11-27T20:56:25.891Z,96.10
2022-11-27T20:59:28.785Z,96.00
2022-11-27T21:02:31.704Z,96.20
2022-11-27T21:05:34.726Z,96.10
2022-11-27T21:08:38.987Z,96.10
2022-11-27T21:11:44.362Z,96.00
2022-11-27T21:14:47.554Z,96.20
2022-11-27T21:17:50.590Z,96.10
2022-11-27T21:20:53.656Z,96.00
2022-11-27T21:23:58.686Z,95.80
2022-11-27T21:27:01.721Z,95.90
2022-11-27T21:30:05.199Z,95.80
2022-11-27T21:33:08.051Z,95.90
2022-11-27T21:36:10.944Z,96.00
2022-11-27T21:39:21.137Z,95.90
2022-11-27T21:42:24.172Z,95.80
2022-11-27T21:45:27.188Z,95.60
2022-11-27T21:48:31.733Z,95.60
2022-11-27T21:51:34.648Z,95.70
2022-11-27T21:54:39.011Z,95.90
2022-11-27T21:57:42.492Z,95.70
2022-11-27T22:00:45.836Z,95.90
2022-11-27T22:03:50.202Z,95.90
2022-11-27T22:06:53.138Z,96.00
2022-11-27T22:09:57.455Z,95.80
2022-11-27T22:13:00.331Z,95.90
2022-11-27T22:16:08.916Z,95.60
2022-11-27T22:19:11.833Z,95.70
2022-11-27T22:22:14.766Z,95.80
2022-11-27T22:25:19.268Z,95.90
2022-11-27T22:28:22.392Z,95.60
2022-11-27T22:31:26.943Z,95.80
2022-11-27T22:34:29.872Z,95.80
2022-11-27T22:37:33.008Z,95.90
2022-11-27T22:40:37.396Z,95.80
2022-11-27T22:43:40.922Z,95.60
2022-11-27T22:46:44.623Z,95.50
2022-11-27T22:49:47.518Z,95.40
2022-11-27T22:52:52.586Z,95.40
2022-11-27T22:56:04.820Z,95.40
2022-11-27T23:02:31.382Z,95.60
2022-11-27T23:05:34.405Z,95.50
2022-11-27T23:08:37.273Z,95.40
2022-11-27T23:11:41.775Z,95.40
2022-11-27T23:14:44.708Z,95.40
2022-11-27T23:17:47.732Z,95.30
2022-11-27T23:20:50.594Z,95.40
2022-11-27T23:23:53.828Z,95.40
2022-11-27T23:26:58.082Z,95.30
2022-11-27T23:30:00.961Z,95.20
2022-11-27T23:33:04.382Z,95.30
2022-11-27T23:36:08.285Z,95.40
2022-11-27T23:39:13.559Z,95.10
2022-11-27T23:42:17.812Z,95.10
2022-11-27T23:45:20.694Z,95.20
2022-11-27T23:48:23.578Z,95.10
2022-11-27T23:51:29.205Z,94.90
2022-11-27T23:54:32.080Z,95.20
2022-11-27T23:57:36.344Z,95.30
